Time;durP1;ratioP1;P1;durP2;ratioP2;P2;SDS_P1;SDS_P2;PMS_P1;PMS_P2;Temp;Humidity;BMP_temperature;BMP_pressure;BME280_temperature;BME280_humidity;BME280_pressure;Samples;Min_cycle;Max_cycle;Signal;HPM_P1;HPM_P2
2023/08/14 00:02:02;;;;;;;8.00;2.67;;;15.90;99.90;;;;;;5011341;28;20059;-78
2023/08/14 00:04:28;;;;;;;9.13;2.97;;;15.90;99.90;;;;;;5048561;28;20037;-79
2023/08/14 00:06:54;;;;;;;7.15;2.88;;;15.80;99.90;;;;;;5053905;28;20544;-78
2023/08/14 00:09:20;;;;;;;11.30;3.00;;;15.90;99.90;;;;;;5051780;28;20088;-78
2023/08/14 00:11:46;;;;;;;6.93;2.78;;;15.90;99.90;;;;;;5054241;28;20433;-78
2023/08/14 00:14:12;;;;;;;9.75;3.40;;;15.90;99.90;;;;;;5051075;28;20041;-78
2023/08/14 00:16:38;;;;;;;6.35;2.63;;;15.90;99.90;;;;;;5033127;28;20045;-78
2023/08/14 00:19:04;;;;;;;7.60;3.00;;;15.90;99.90;;;;;;5034009;28;20059;-80
2023/08/14 00:21:29;;;;;;;6.43;2.65;;;15.80;99.90;;;;;;5059524;28;20036;-79
2023/08/14 00:23:55;;;;;;;7.35;2.70;;;15.80;99.90;;;;;;5052333;28;20040;-78
2023/08/14 00:26:21;;;;;;;7.20;3.03;;;15.70;99.90;;;;;;5034926;28;20048;-79
2023/08/14 00:28:46;;;;;;;9.65;2.88;;;15.70;99.90;;;;;;5048683;28;20607;-79
2023/08/14 00:31:12;;;;;;;8.30;2.90;;;15.70;99.90;;;;;;5054281;28;20036;-79
2023/08/14 00:33:38;;;;;;;7.90;2.95;;;15.70;99.90;;;;;;5028084;28;20045;-78
2023/08/14 00:36:05;;;;;;;7.22;2.80;;;15.60;99.90;;;;;;5052835;28;20086;-79
2023/08/14 00:38:31;;;;;;;6.25;2.53;;;15.60;99.90;;;;;;5037309;28;20045;-79
2023/08/14 00:40:57;;;;;;;9.38;2.80;;;15.50;99.90;;;;;;5039411;28;20173;-79
2023/08/14 00:43:23;;;;;;;7.35;2.90;;;15.50;99.90;;;;;;5046251;28;20757;-79
2023/08/14 00:45:54;;;;;;;8.65;2.92;;;15.40;99.90;;;;;;5048749;28;20025;-79
2023/08/14 00:48:20;;;;;;;6.55;2.58;;;15.40;99.90;;;;;;5042617;28;20609;-79
2023/08/14 00:50:46;;;;;;;6.65;2.50;;;15.30;99.90;;;;;;5036567;28;20119;-79
2023/08/14 00:53:14;;;;;;;6.65;2.65;;;15.40;99.90;;;;;;5040779;28;20053;-79
2023/08/14 00:55:40;;;;;;;6.78;2.58;;;15.40;99.90;;;;;;5051082;28;20439;-79
2023/08/14 00:58:06;;;;;;;7.18;2.55;;;15.30;99.90;;;;;;5049623;28;20037;-79
2023/08/14 01:00:34;;;;;;;6.40;2.45;;;15.30;99.90;;;;;;5051187;28;20075;-79
2023/08/14 01:03:01;;;;;;;8.82;2.80;;;15.20;99.90;;;;;;5050582;28;20463;-79
2023/08/14 01:05:27;;;;;;;9.73;2.63;;;15.20;99.90;;;;;;5037166;28;20526;-79
2023/08/14 01:07:53;;;;;;;6.25;2.35;;;15.10;99.90;;;;;;5033929;28;20043;-79
2023/08/14 01:10:19;;;;;;;6.40;2.33;;;15.20;99.90;;;;;;5033542;28;20032;-79
2023/08/14 01:13:19;;;;;;;6.88;2.97;;;15.20;99.90;;;;;;5034112;28;20044;-78
2023/08/14 01:15:49;;;;;;;9.18;2.80;;;15.20;99.90;;;;;;5055131;28;20494;-79
2023/08/14 01:18:17;;;;;;;7.22;2.88;;;15.20;99.90;;;;;;5055067;28;20133;-79
2023/08/14 01:21:02;;;;;;;7.60;2.75;;;15.20;99.90;;;;;;5051492;28;20134;-79
2023/08/14 01:23:40;;;;;;;7.30;3.00;;;15.30;99.90;;;;;;5038059;28;20040;-79
2023/08/14 01:26:07;;;;;;;8.02;3.20;;;15.30;99.90;;;;;;5049256;28;20096;-79
2023/08/14 01:28:33;;;;;;;6.68;2.50;;;15.30;99.90;;;;;;5051929;28;20051;-79
2023/08/14 01:30:58;;;;;;;9.45;3.15;;;15.30;99.90;;;;;;5027943;28;20106;-79
2023/08/14 01:33:24;;;;;;;8.13;3.00;;;15.30;99.90;;;;;;5057270;28;20040;-79
2023/08/14 01:36:20;;;;;;;8.18;3.00;;;15.30;99.90;;;;;;5033012;28;20051;-79
2023/08/14 01:39:08;;;;;;;8.20;3.20;;;15.30;99.90;;;;;;5055216;28;20110;-79
2023/08/14 01:41:51;;;;;;;7.57;2.83;;;15.40;99.90;;;;;;5055374;28;20436;-79
2023/08/14 01:44:20;;;;;;;10.23;3.20;;;15.30;99.90;;;;;;5049646;28;20036;-79
2023/08/14 01:46:48;;;;;;;9.05;3.13;;;15.30;99.90;;;;;;5028688;28;20077;-79
2023/08/14 01:49:17;;;;;;;8.35;3.30;;;15.30;99.90;;;;;;5031187;28;20091;-79
2023/08/14 01:51:45;;;;;;;7.25;2.92;;;15.30;99.90;;;;;;5041334;28;20044;-78
2023/08/14 01:54:11;;;;;;;9.88;3.00;;;15.30;99.90;;;;;;5032364;28;20700;-79
2023/08/14 01:56:37;;;;;;;8.00;3.15;;;15.30;99.90;;;;;;5024908;28;20302;-79
2023/08/14 01:59:03;;;;;;;7.47;3.05;;;15.30;99.90;;;;;;5045965;28;20067;-79
2023/08/14 02:01:28;;;;;;;9.55;3.00;;;15.30;99.90;;;;;;5050461;28;20115;-78
2023/08/14 02:03:54;;;;;;;7.18;2.75;;;15.30;99.90;;;;;;5030090;28;20042;-79
2023/08/14 02:06:20;;;;;;;8.27;3.00;;;15.30;99.90;;;;;;5025862;28;20544;-79
2023/08/14 02:08:46;;;;;;;12.00;3.40;;;15.30;99.90;;;;;;5029748;28;20072;-79
2023/08/14 02:11:11;;;;;;;8.95;2.88;;;15.30;99.90;;;;;;5039233;28;20110;-79
2023/08/14 02:13:37;;;;;;;7.95;3.15;;;15.30;99.90;;;;;;5030714;28;20127;-78
2023/08/14 02:16:03;;;;;;;7.25;3.00;;;15.20;99.90;;;;;;5033089;28;20040;-79
2023/08/14 02:18:29;;;;;;;7.57;3.20;;;15.20;99.90;;;;;;5043580;28;20042;-79
2023/08/14 02:20:54;;;;;;;9.23;3.60;;;15.20;99.90;;;;;;5041803;28;20044;-79
2023/08/14 02:23:20;;;;;;;8.13;3.15;;;15.20;99.90;;;;;;5047273;28;20032;-79
2023/08/14 02:25:46;;;;;;;8.15;3.08;;;15.20;99.90;;;;;;5034225;28;20051;-79
2023/08/14 02:28:12;;;;;;;7.90;3.55;;;15.20;99.90;;;;;;5029334;28;20051;-78
2023/08/14 02:30:42;;;;;;;12.85;3.60;;;15.10;99.90;;;;;;5045634;28;20036;-79
2023/08/14 02:33:09;;;;;;;8.35;3.08;;;15.20;99.90;;;;;;5055327;28;20028;-78
2023/08/14 02:35:34;;;;;;;8.30;3.03;;;15.10;99.90;;;;;;5017543;28;20488;-78
2023/08/14 02:38:05;;;;;;;9.10;3.10;;;15.10;99.90;;;;;;5032317;28;20120;-78
2023/08/14 02:40:31;;;;;;;10.55;3.47;;;15.10;99.90;;;;;;5045410;28;20116;-78
2023/08/14 02:43:00;;;;;;;7.65;3.50;;;15.10;99.90;;;;;;5022943;28;20132;-78
2023/08/14 02:45:25;;;;;;;10.25;3.92;;;15.10;99.90;;;;;;5046729;28;20028;-78
2023/08/14 02:47:51;;;;;;;8.70;3.47;;;15.10;99.90;;;;;;5026338;28;20090;-78
2023/08/14 02:50:17;;;;;;;11.43;3.83;;;15.10;99.90;;;;;;5046099;28;20082;-78
2023/08/14 02:52:42;;;;;;;8.90;3.70;;;15.10;99.90;;;;;;5033296;28;20133;-78
2023/08/14 02:55:08;;;;;;;8.52;3.83;;;15.10;99.90;;;;;;5042134;28;20052;-78
2023/08/14 02:57:34;;;;;;;10.07;3.88;;;15.10;99.90;;;;;;5034619;28;20032;-78
2023/08/14 03:00:00;;;;;;;8.70;3.67;;;15.10;99.90;;;;;;5045276;28;20040;-79
2023/08/14 03:02:25;;;;;;;8.43;3.50;;;15.10;99.90;;;;;;5032899;28;20127;-78
2023/08/14 03:04:51;;;;;;;8.38;3.58;;;15.10;99.90;;;;;;5046420;28;20036;-78
2023/08/14 03:07:17;;;;;;;8.20;3.80;;;15.10;99.90;;;;;;5032376;28;20415;-78
2023/08/14 03:09:42;;;;;;;7.90;3.80;;;15.00;99.90;;;;;;5046399;28;20045;-78
2023/08/14 03:12:08;;;;;;;8.95;3.60;;;15.10;99.90;;;;;;5056851;28;20043;-78
2023/08/14 03:14:34;;;;;;;7.93;3.55;;;15.10;99.90;;;;;;5014407;28;20032;-78
2023/08/14 03:17:00;;;;;;;11.00;4.03;;;15.10;99.90;;;;;;5054026;28;20040;-78
2023/08/14 03:19:25;;;;;;;9.88;3.63;;;15.10;99.90;;;;;;5024513;28;20053;-78
2023/08/14 03:21:52;;;;;;;10.30;3.95;;;15.10;99.90;;;;;;5057266;28;20378;-79
2023/08/14 03:24:18;;;;;;;12.10;3.97;;;15.10;99.90;;;;;;5036205;28;20040;-78
2023/08/14 03:26:43;;;;;;;9.10;3.95;;;15.10;99.90;;;;;;5055057;28;20122;-78
2023/08/14 03:29:09;;;;;;;11.52;4.10;;;15.10;99.90;;;;;;5046086;28;20482;-78
2023/08/14 03:31:35;;;;;;;9.32;3.70;;;15.10;99.90;;;;;;5030100;28;20099;-79
2023/08/14 03:34:01;;;;;;;11.85;4.30;;;15.10;99.90;;;;;;5037465;28;20040;-78
2023/08/14 03:36:26;;;;;;;8.82;3.90;;;15.00;99.90;;;;;;5034321;28;20037;-78
2023/08/14 03:38:52;;;;;;;9.27;4.10;;;15.10;99.90;;;;;;5048844;28;20114;-78
2023/08/14 03:41:19;;;;;;;8.77;4.05;;;15.10;99.90;;;;;;5038361;28;20158;-78
2023/08/14 03:43:45;;;;;;;12.30;3.88;;;15.10;99.90;;;;;;5040344;28;20149;-78
2023/08/14 03:46:11;;;;;;;9.88;4.47;;;15.00;99.90;;;;;;5021161;28;20504;-78
2023/08/14 03:48:37;;;;;;;10.00;4.53;;;15.00;99.90;;;;;;5056789;28;20032;-78
2023/08/14 03:51:03;;;;;;;9.20;4.30;;;15.00;99.90;;;;;;5044355;28;20045;-78
2023/08/14 03:53:30;;;;;;;10.15;4.80;;;15.00;99.90;;;;;;5055233;28;20041;-78
2023/08/14 03:55:56;;;;;;;10.00;4.53;;;15.00;99.90;;;;;;5051415;28;20092;-78
2023/08/14 03:58:21;;;;;;;9.07;4.20;;;15.00;99.90;;;;;;5031716;28;20037;-78
2023/08/14 04:00:47;;;;;;;10.93;4.57;;;15.00;99.90;;;;;;5016990;28;20478;-78
2023/08/14 04:03:13;;;;;;;10.05;4.57;;;15.00;99.90;;;;;;5037988;28;20041;-78
2023/08/14 04:05:40;;;;;;;10.40;4.32;;;15.00;99.90;;;;;;5040284;28;20032;-78
2023/08/14 04:08:09;;;;;;;10.90;4.93;;;15.00;99.90;;;;;;5032870;28;20037;-78
2023/08/14 04:10:35;;;;;;;9.15;4.57;;;15.00;99.90;;;;;;5051364;28;20053;-78
2023/08/14 04:13:00;;;;;;;10.30;4.82;;;15.00;99.90;;;;;;5050788;28;20039;-78
2023/08/14 04:15:26;;;;;;;10.52;4.70;;;15.00;99.90;;;;;;5055627;28;20033;-78
2023/08/14 04:17:52;;;;;;;11.07;5.15;;;15.00;99.90;;;;;;5055423;28;20048;-79
2023/08/14 04:20:18;;;;;;;10.68;4.97;;;15.00;99.90;;;;;;5054396;28;20562;-78
2023/08/14 04:22:43;;;;;;;12.45;5.55;;;15.00;99.90;;;;;;5052042;28;20094;-78
2023/08/14 04:25:09;;;;;;;10.10;5.03;;;15.00;99.90;;;;;;5060088;28;20028;-79
2023/08/14 04:27:36;;;;;;;9.82;5.10;;;15.00;99.90;;;;;;5050103;28;20070;-78
2023/08/14 04:30:03;;;;;;;10.63;4.97;;;15.00;99.90;;;;;;5035151;28;20033;-78
2023/08/14 04:32:29;;;;;;;11.20;5.00;;;13.90;99.90;;;;;;5020733;28;20091;-78
2023/08/14 04:34:55;;;;;;;9.07;4.82;;;15.00;99.90;;;;;;5041205;28;20033;-78
2023/08/14 04:37:20;;;;;;;11.32;5.18;;;15.00;99.90;;;;;;5037463;28;20698;-79
2023/08/14 04:39:46;;;;;;;13.70;5.47;;;15.00;99.90;;;;;;5030013;28;20044;-79
2023/08/14 04:42:12;;;;;;;12.23;5.30;;;15.00;99.90;;;;;;5036320;28;20417;-78
2023/08/14 04:44:37;;;;;;;11.13;5.60;;;15.00;99.90;;;;;;5022524;28;20630;-79
2023/08/14 04:47:03;;;;;;;11.52;5.72;;;15.00;99.90;;;;;;5018517;28;20040;-79
2023/08/14 04:49:29;;;;;;;11.68;5.70;;;15.10;99.90;;;;;;5030386;28;20041;-78
2023/08/14 04:51:55;;;;;;;12.80;5.40;;;15.40;99.90;;;;;;5024915;28;20048;-78
2023/08/14 04:54:21;;;;;;;10.02;5.20;;;15.10;99.90;;;;;;5049336;28;20444;-78
2023/08/14 04:56:47;;;;;;;11.13;5.72;;;15.10;99.90;;;;;;5030564;28;20041;-79
2023/08/14 04:59:12;;;;;;;11.30;5.32;;;15.20;99.90;;;;;;5046143;28;20207;-78
2023/08/14 05:01:38;;;;;;;11.05;5.40;;;15.20;99.90;;;;;;5021113;28;20045;-78
2023/08/14 05:04:04;;;;;;;11.43;5.35;;;15.20;99.90;;;;;;5060208;28;20366;-78
2023/08/14 05:06:29;;;;;;;10.90;5.00;;;15.30;99.90;;;;;;5038489;28;20029;-78
2023/08/14 05:08:55;;;;;;;12.35;5.75;;;15.30;99.90;;;;;;5043971;28;20049;-78
2023/08/14 05:11:21;;;;;;;14.25;5.78;;;15.30;99.90;;;;;;5029574;28;20029;-78
2023/08/14 05:13:47;;;;;;;10.60;5.43;;;15.40;99.90;;;;;;5048356;28;20427;-78
2023/08/14 05:16:13;;;;;;;12.63;5.20;;;15.40;99.90;;;;;;5049169;28;20190;-78
2023/08/14 05:18:39;;;;;;;9.60;4.95;;;15.50;99.90;;;;;;5033146;28;20036;-79
2023/08/14 05:21:05;;;;;;;9.80;5.47;;;15.50;99.90;;;;;;5067847;28;20032;-79
2023/08/14 05:23:31;;;;;;;10.15;5.15;;;15.50;99.90;;;;;;5037122;28;20037;-78
2023/08/14 05:25:56;;;;;;;11.80;5.43;;;15.50;99.90;;;;;;5051109;28;20045;-78
2023/08/14 05:28:22;;;;;;;11.45;5.30;;;15.60;99.90;;;;;;5023111;28;20045;-78
2023/08/14 05:30:48;;;;;;;10.63;5.00;;;15.60;99.90;;;;;;5038737;28;20048;-78
2023/08/14 05:33:13;;;;;;;9.38;4.35;;;15.60;99.90;;;;;;5037546;28;20162;-78
2023/08/14 05:35:39;;;;;;;13.40;4.93;;;15.70;99.90;;;;;;5011596;28;20036;-78
2023/08/14 05:38:06;;;;;;;12.57;5.03;;;15.70;99.90;;;;;;5025084;28;20041;-78
2023/08/14 05:40:32;;;;;;;10.82;5.25;;;15.80;99.90;;;;;;5063211;28;20056;-78
2023/08/14 05:43:05;;;;;;;9.73;5.25;;;15.80;99.90;;;;;;5064661;28;20049;-78
2023/08/14 05:45:38;;;;;;;12.05;5.10;;;15.90;99.90;;;;;;5067466;28;20055;-78
2023/08/14 05:48:06;;;;;;;11.10;5.25;;;15.90;99.90;;;;;;5072653;28;20100;-78
2023/08/14 05:50:32;;;;;;;10.15;4.75;;;16.00;99.90;;;;;;5047718;28;20043;-78
2023/08/14 05:53:00;;;;;;;11.20;5.15;;;16.00;99.90;;;;;;5062431;28;20230;-78
2023/08/14 05:55:27;;;;;;;11.48;4.88;;;16.10;99.90;;;;;;5047754;28;20102;-78
2023/08/14 05:57:52;;;;;;;12.20;4.90;;;16.10;99.90;;;;;;5065210;28;20190;-78
2023/08/14 06:00:19;;;;;;;10.75;4.68;;;16.20;99.90;;;;;;5049127;28;20024;-78
2023/08/14 06:02:45;;;;;;;11.43;4.93;;;16.30;99.90;;;;;;5074723;28;20091;-78
2023/08/14 06:05:12;;;;;;;9.85;4.50;;;16.30;99.90;;;;;;5045138;28;20040;-78
2023/08/14 06:07:37;;;;;;;10.10;5.03;;;16.30;99.90;;;;;;5057535;28;20052;-78
2023/08/14 06:10:04;;;;;;;12.70;4.90;;;16.40;99.90;;;;;;5067878;28;20040;-78
2023/08/14 06:12:31;;;;;;;13.48;4.68;;;16.40;99.90;;;;;;5039393;28;20040;-78
2023/08/14 06:14:56;;;;;;;11.52;5.32;;;16.50;99.90;;;;;;5036066;28;20274;-78
2023/08/14 06:17:22;;;;;;;10.75;5.00;;;16.60;99.90;;;;;;5058731;28;20029;-78
2023/08/14 06:19:48;;;;;;;11.52;4.85;;;16.60;99.90;;;;;;5048657;28;20056;-78
2023/08/14 06:22:16;;;;;;;13.48;4.60;;;16.70;99.90;;;;;;5045817;28;20037;-78
2023/08/14 06:24:41;;;;;;;10.80;4.82;;;16.80;99.90;;;;;;5048482;28;20023;-78
2023/08/14 06:27:07;;;;;;;10.13;4.40;;;16.80;99.90;;;;;;5048144;28;20048;-78
2023/08/14 06:29:33;;;;;;;10.20;4.40;;;16.90;99.90;;;;;;5045305;28;20083;-78
2023/08/14 06:31:58;;;;;;;10.18;4.93;;;16.90;99.90;;;;;;5031755;28;20037;-78
2023/08/14 06:34:24;;;;;;;11.75;4.97;;;17.00;99.90;;;;;;5059460;28;20231;-77
2023/08/14 06:36:50;;;;;;;11.32;5.07;;;17.00;99.90;;;;;;5064602;28;20083;-78
2023/08/14 06:39:15;;;;;;;11.23;5.10;;;17.10;99.90;;;;;;5048079;28;20048;-78
2023/08/14 06:41:41;;;;;;;15.20;5.30;;;17.10;99.90;;;;;;5066122;28;20044;-78
2023/08/14 06:44:10;;;;;;;14.25;5.47;;;17.20;99.90;;;;;;5068291;28;20302;-78
2023/08/14 06:46:36;;;;;;;10.60;4.78;;;17.20;99.90;;;;;;5044947;28;20096;-78
2023/08/14 06:49:02;;;;;;;11.55;5.00;;;17.20;99.90;;;;;;5063527;28;20033;-78
2023/08/14 06:51:28;;;;;;;10.35;5.32;;;17.30;99.90;;;;;;5035978;28;20064;-78
2023/08/14 06:53:54;;;;;;;12.38;4.60;;;17.30;99.90;;;;;;5040534;28;20029;-78
2023/08/14 06:56:19;;;;;;;10.85;5.05;;;17.30;99.90;;;;;;5033262;28;20106;-78
2023/08/14 06:58:45;;;;;;;12.35;5.20;;;17.40;99.90;;;;;;5063166;28;20045;-78
2023/08/14 07:01:11;;;;;;;9.65;4.35;;;17.40;99.90;;;;;;5042181;28;20040;-78
2023/08/14 07:03:37;;;;;;;9.88;4.63;;;17.40;99.90;;;;;;5063538;28;20036;-77
2023/08/14 07:06:03;;;;;;;11.40;4.78;;;17.50;99.90;;;;;;5066214;28;20130;-77
2023/08/14 07:08:29;;;;;;;11.35;4.70;;;17.60;99.90;;;;;;5049163;28;20047;-77
2023/08/14 07:10:54;;;;;;;10.15;4.18;;;17.60;99.90;;;;;;5056293;28;20037;-77
2023/08/14 07:13:21;;;;;;;11.68;4.75;;;17.70;99.90;;;;;;5062390;28;20051;-77
2023/08/14 07:15:47;;;;;;;10.13;4.22;;;17.70;99.90;;;;;;5066192;28;20032;-78
2023/08/14 07:18:18;;;;;;;11.10;5.10;;;17.80;99.90;;;;;;5057872;28;20033;-78
2023/08/14 07:20:45;;;;;;;10.52;4.57;;;17.90;99.90;;;;;;5063588;28;20065;-77
2023/08/14 07:23:15;;;;;;;10.68;4.22;;;17.90;99.90;;;;;;5042552;28;20043;-78
2023/08/14 07:25:40;;;;;;;10.73;4.22;;;18.00;99.90;;;;;;5041723;28;20153;-77
2023/08/14 07:28:06;;;;;;;9.30;4.10;;;18.20;99.90;;;;;;5064627;28;20882;-77
2023/08/14 07:30:32;;;;;;;9.88;4.30;;;18.30;99.90;;;;;;5040381;28;20293;-77
2023/08/14 07:32:58;;;;;;;12.05;4.63;;;18.50;99.90;;;;;;5058191;28;20033;-77
2023/08/14 07:35:23;;;;;;;10.63;4.10;;;18.70;99.90;;;;;;5067654;28;20167;-77
2023/08/14 07:37:49;;;;;;;9.25;3.90;;;18.80;99.90;;;;;;5064705;28;20274;-78
2023/08/14 07:40:15;;;;;;;10.10;3.72;;;19.00;99.90;;;;;;5070874;28;20166;-77
2023/08/14 07:42:41;;;;;;;10.80;3.85;;;19.10;99.90;;;;;;5065882;28;20041;-77
2023/08/14 07:45:07;;;;;;;10.52;3.90;;;19.20;99.90;;;;;;5044518;28;20066;-77
2023/08/14 07:47:32;;;;;;;9.88;3.63;;;19.30;99.90;;;;;;5062893;28;20048;-77
2023/08/14 07:49:58;;;;;;;9.77;3.45;;;19.40;99.90;;;;;;5053899;28;20053;-77
2023/08/14 07:52:25;;;;;;;10.93;3.78;;;19.50;99.90;;;;;;5077877;28;20056;-77
2023/08/14 07:54:51;;;;;;;13.32;3.53;;;19.50;99.90;;;;;;5052308;28;20411;-77
2023/08/14 07:57:16;;;;;;;10.98;3.38;;;19.50;99.90;;;;;;5054821;28;20029;-77
2023/08/14 07:59:42;;;;;;;11.40;3.55;;;19.50;99.90;;;;;;5047929;28;20032;-77
2023/08/14 08:02:08;;;;;;;8.52;2.85;;;19.50;99.90;;;;;;5040515;28;20076;-78
2023/08/14 08:04:36;;;;;;;8.10;3.00;;;19.50;99.90;;;;;;5071784;28;20045;-77
2023/08/14 08:07:05;;;;;;;8.38;2.78;;;19.50;99.90;;;;;;5027659;28;20303;-77
2023/08/14 08:09:31;;;;;;;8.73;2.88;;;19.50;99.90;;;;;;5042533;28;20079;-77
2023/08/14 08:12:00;;;;;;;8.30;2.60;;;19.60;99.90;;;;;;5037425;28;20033;-77
2023/08/14 08:14:26;;;;;;;9.75;2.70;;;19.60;99.90;;;;;;5063897;28;20054;-77
2023/08/14 08:16:52;;;;;;;7.97;3.08;;;19.70;99.90;;;;;;5037060;28;20068;-77
2023/08/14 08:19:18;;;;;;;8.38;2.80;;;19.70;99.90;;;;;;5055266;28;20161;-77
2023/08/14 08:21:44;;;;;;;8.60;2.65;;;19.70;99.90;;;;;;5049564;28;20049;-77
2023/08/14 08:24:10;;;;;;;7.90;2.70;;;19.80;99.90;;;;;;5069558;28;20272;-77
2023/08/14 08:26:36;;;;;;;8.55;2.78;;;19.90;99.90;;;;;;5037917;28;20041;-77
2023/08/14 08:29:03;;;;;;;9.40;3.00;;;20.00;99.90;;;;;;5058970;28;20159;-77
2023/08/14 08:31:29;;;;;;;7.80;2.65;;;20.20;99.90;;;;;;5024480;28;20032;-77
2023/08/14 08:33:55;;;;;;;9.73;2.90;;;20.30;99.90;;;;;;5065427;28;20032;-77
2023/08/14 08:36:21;;;;;;;7.53;2.50;;;20.40;99.90;;;;;;5049544;28;20321;-77
2023/08/14 08:38:47;;;;;;;9.60;2.67;;;20.40;99.90;;;;;;5024633;28;20067;-77
2023/08/14 08:41:27;;;;;;;8.00;2.35;;;20.60;99.90;;;;;;5025239;28;20403;-77
2023/08/14 08:44:17;;;;;;;7.45;2.30;;;20.80;99.90;;;;;;5064418;28;20028;-77
2023/08/14 08:46:51;;;;;;;8.18;2.70;;;21.10;99.90;;;;;;5063525;28;20052;-77
2023/08/14 08:49:17;;;;;;;9.38;2.28;;;21.20;99.90;;;;;;5068330;28;20262;-77
2023/08/14 08:51:44;;;;;;;9.02;2.58;;;21.30;99.90;;;;;;5065677;28;20041;-77
2023/08/14 08:54:12;;;;;;;8.68;2.45;;;21.40;99.90;;;;;;5050451;28;20053;-77
2023/08/14 08:56:38;;;;;;;7.95;2.40;;;21.50;99.90;;;;;;5052424;28;20098;-77
2023/08/14 08:59:04;;;;;;;9.13;2.67;;;21.70;99.90;;;;;;5044400;28;20033;-77
2023/08/14 09:01:30;;;;;;;7.75;2.42;;;21.80;99.90;;;;;;5066124;28;20032;-78
2023/08/14 09:03:56;;;;;;;7.72;2.50;;;22.00;99.90;;;;;;5052398;28;20038;-77
2023/08/14 09:06:22;;;;;;;8.27;2.60;;;22.10;99.90;;;;;;5038599;28;20021;-77
2023/08/14 09:08:47;;;;;;;6.90;2.40;;;22.10;99.90;;;;;;5043748;28;20214;-78
2023/08/14 09:11:13;;;;;;;7.35;2.22;;;22.00;99.90;;;;;;5038731;28;20091;-78
2023/08/14 09:13:39;;;;;;;9.52;2.60;;;21.80;99.90;;;;;;5058475;28;20267;-77
2023/08/14 09:16:05;;;;;;;7.93;2.13;;;21.60;99.90;;;;;;5061399;28;20028;-78
2023/08/14 09:18:31;;;;;;;6.97;2.17;;;21.50;99.90;;;;;;5058955;28;20024;-78
2023/08/14 09:20:57;;;;;;;7.05;1.90;;;21.40;99.90;;;;;;5046094;28;20070;-78
2023/08/14 09:23:23;;;;;;;7.68;2.05;;;21.70;99.90;;;;;;5050284;28;20063;-78
2023/08/14 09:25:50;;;;;;;6.90;2.22;;;21.70;99.90;;;;;;5068327;28;20055;-78
2023/08/14 09:28:17;;;;;;;5.65;2.08;;;22.00;99.90;;;;;;5048107;28;20025;-78
2023/08/14 09:30:43;;;;;;;9.93;2.70;;;22.10;99.90;;;;;;5053036;28;20045;-78
2023/08/14 09:33:11;;;;;;;7.10;2.20;;;22.10;99.90;;;;;;5057080;28;20025;-77
2023/08/14 09:35:38;;;;;;;6.65;2.25;;;22.40;99.90;;;;;;5070874;28;20288;-78
2023/08/14 09:38:04;;;;;;;4.88;1.88;;;22.40;99.90;;;;;;5068376;28;20049;-78
2023/08/14 09:40:32;;;;;;;8.02;2.33;;;22.60;99.90;;;;;;5054416;28;20072;-78
2023/08/14 09:42:58;;;;;;;7.93;2.50;;;22.70;99.90;;;;;;5061076;28;20036;-78
2023/08/14 09:45:27;;;;;;;6.57;2.00;;;22.80;99.90;;;;;;5058236;28;20032;-78
2023/08/14 09:48:00;;;;;;;5.15;1.70;;;22.90;99.90;;;;;;5071028;28;20104;-78
2023/08/14 09:50:29;;;;;;;5.95;2.17;;;22.90;99.90;;;;;;5051946;28;20100;-78
2023/08/14 09:52:57;;;;;;;6.90;2.25;;;23.00;99.90;;;;;;5039954;28;20205;-78
2023/08/14 09:55:25;;;;;;;6.68;2.00;;;22.90;99.90;;;;;;5067771;28;20036;-78
2023/08/14 09:57:53;;;;;;;6.78;1.73;;;22.90;99.90;;;;;;5065066;28;20110;-78
2023/08/14 10:00:19;;;;;;;4.45;1.77;;;22.90;99.90;;;;;;5026023;28;20055;-78
2023/08/14 10:02:47;;;;;;;4.93;1.77;;;23.10;99.90;;;;;;5066410;28;20032;-78
2023/08/14 10:05:16;;;;;;;5.50;1.60;;;23.20;99.90;;;;;;5069900;28;20033;-78
2023/08/14 10:07:43;;;;;;;6.53;1.90;;;23.20;99.90;;;;;;5060672;28;20042;-78
2023/08/14 10:10:11;;;;;;;6.32;1.60;;;23.40;99.90;;;;;;5065408;28;20074;-78
2023/08/14 10:12:50;;;;;;;4.07;1.45;;;23.40;99.90;;;;;;5061824;28;20034;-78
2023/08/14 10:15:21;;;;;;;5.22;1.70;;;23.50;99.90;;;;;;5043273;28;20087;-78
2023/08/14 10:17:55;;;;;;;5.00;1.60;;;23.40;99.90;;;;;;5061780;28;20103;-78
2023/08/14 10:20:24;;;;;;;7.05;1.60;;;23.40;99.90;;;;;;5068098;28;20093;-78
2023/08/14 10:22:52;;;;;;;5.95;1.70;;;23.40;99.90;;;;;;5066655;28;20048;-78
2023/08/14 10:25:22;;;;;;;3.80;1.35;;;23.40;99.90;;;;;;5029830;28;20116;-78
2023/08/14 10:27:49;;;;;;;4.40;1.42;;;23.50;99.90;;;;;;5060539;28;20111;-78
2023/08/14 10:30:19;;;;;;;3.95;1.50;;;23.70;99.90;;;;;;5063188;28;20032;-78
2023/08/14 10:32:47;;;;;;;6.45;1.80;;;23.80;99.90;;;;;;5055944;28;20335;-78
2023/08/14 10:35:12;;;;;;;5.25;1.50;;;23.90;99.90;;;;;;5060361;28;20052;-77
2023/08/14 10:37:49;;;;;;;6.82;1.67;;;24.10;99.90;;;;;;5049034;28;20044;-78
2023/08/14 10:40:23;;;;;;;8.95;1.98;;;24.20;99.90;;;;;;5067390;28;20094;-78
2023/08/14 10:42:58;;;;;;;5.10;1.63;;;24.40;99.90;;;;;;5049071;28;20063;-78
2023/08/14 10:45:25;;;;;;;5.05;1.50;;;24.30;99.90;;;;;;5070456;28;20054;-78
2023/08/14 10:47:57;;;;;;;5.10;1.58;;;24.30;99.90;;;;;;5027924;28;20041;-78
2023/08/14 10:50:25;;;;;;;4.35;1.50;;;24.20;99.90;;;;;;5064749;28;20029;-78
2023/08/14 10:52:53;;;;;;;5.57;1.90;;;24.10;99.90;;;;;;5069147;28;20029;-78
2023/08/14 10:55:25;;;;;;;6.32;1.88;;;24.20;99.90;;;;;;5064048;28;20028;-78
2023/08/14 10:57:53;;;;;;;6.20;1.73;;;24.30;99.90;;;;;;5056217;28;20041;-78
2023/08/14 11:00:24;;;;;;;6.18;1.50;;;24.10;99.90;;;;;;5055779;28;20047;-79
2023/08/14 11:03:05;;;;;;;4.93;1.60;;;24.40;99.90;;;;;;5040703;28;20029;-78
2023/08/14 11:05:36;;;;;;;6.18;1.77;;;24.50;99.90;;;;;;5052463;28;20082;-78
2023/08/14 11:08:02;;;;;;;7.50;1.90;;;24.20;99.90;;;;;;5035151;28;20029;-78
2023/08/14 11:10:31;;;;;;;6.22;1.70;;;22.00;99.90;;;;;;5046699;28;20266;-78
2023/08/14 11:12:57;;;;;;;4.78;1.40;;;23.80;99.90;;;;;;5051126;28;20020;-78
2023/08/14 11:15:23;;;;;;;6.00;1.70;;;23.60;99.90;;;;;;5020727;28;20025;-78
2023/08/14 11:17:49;;;;;;;6.07;1.85;;;23.50;99.90;;;;;;5057664;28;20044;-78
2023/08/14 11:20:15;;;;;;;6.35;1.67;;;23.50;99.90;;;;;;5058195;28;20278;-78
2023/08/14 11:22:45;;;;;;;6.55;1.70;;;23.50;99.90;;;;;;5033671;28;20028;-78
2023/08/14 11:25:15;;;;;;;6.72;1.80;;;22.80;99.90;;;;;;5060608;28;20072;-78
2023/08/14 11:27:47;;;;;;;5.80;1.90;;;23.40;99.90;;;;;;5063498;28;20101;-78
2023/08/14 11:30:13;;;;;;;6.03;1.95;;;23.60;99.90;;;;;;5045512;28;20024;-78
2023/08/14 11:32:38;;;;;;;6.65;1.75;;;23.60;99.90;;;;;;5050092;28;20294;-78
2023/08/14 11:35:06;;;;;;;6.80;1.88;;;24.10;99.90;;;;;;5070436;28;20049;-78
2023/08/14 11:37:32;;;;;;;6.18;1.73;;;24.20;99.90;;;;;;5023049;28;20026;-78
2023/08/14 11:40:06;;;;;;;6.07;1.67;;;24.50;99.90;;;;;;5054395;28;20056;-78
2023/08/14 11:42:36;;;;;;;5.95;1.90;;;24.60;99.90;;;;;;5063911;28;20028;-78
2023/08/14 11:45:04;;;;;;;6.55;2.00;;;24.40;99.90;;;;;;5062681;28;20075;-78
2023/08/14 11:47:50;;;;;;;8.55;1.80;;;24.40;99.90;;;;;;5040119;28;20033;-78
2023/08/14 11:50:17;;;;;;;6.00;1.70;;;24.30;99.90;;;;;;5046849;28;20086;-78
2023/08/14 11:52:44;;;;;;;5.25;1.73;;;24.40;99.90;;;;;;5066292;28;20084;-78
2023/08/14 11:55:11;;;;;;;6.28;1.73;;;24.90;99.90;;;;;;5033135;28;20025;-78
2023/08/14 11:57:38;;;;;;;6.40;1.70;;;24.70;99.90;;;;;;5067206;28;20048;-78
2023/08/14 12:00:13;;;;;;;7.45;2.10;;;24.90;99.90;;;;;;5066295;28;20095;-78
2023/08/14 12:02:39;;;;;;;5.53;1.75;;;25.10;99.90;;;;;;5053495;28;20028;-78
2023/08/14 12:05:06;;;;;;;10.05;2.75;;;25.10;99.90;;;;;;5042969;28;20060;-78
2023/08/14 12:07:32;;;;;;;5.53;1.80;;;25.20;99.90;;;;;;5067913;28;20028;-78
2023/08/14 12:09:58;;;;;;;5.32;1.80;;;25.30;99.90;;;;;;5052009;28;20075;-78
2023/08/14 12:12:26;;;;;;;7.20;1.80;;;25.30;99.90;;;;;;5069174;28;20033;-78
2023/08/14 12:14:53;;;;;;;7.63;1.92;;;25.40;99.90;;;;;;5067227;28;20037;-78
2023/08/14 12:17:19;;;;;;;7.20;1.92;;;25.50;99.90;;;;;;5033662;28;20048;-78
2023/08/14 12:19:53;;;;;;;5.60;1.83;;;25.50;99.90;;;;;;5067877;28;20040;-78
2023/08/14 12:22:26;;;;;;;6.75;1.90;;;25.50;99.90;;;;;;5041392;28;20076;-78
2023/08/14 12:24:53;;;;;;;5.93;1.67;;;25.60;99.90;;;;;;5067156;28;20178;-79
2023/08/14 12:27:25;;;;;;;7.95;1.88;;;25.60;99.90;;;;;;5054354;28;20032;-78
2023/08/14 12:29:52;;;;;;;4.53;1.67;;;25.70;99.90;;;;;;5048930;28;20033;-78
2023/08/14 12:32:19;;;;;;;6.32;1.70;;;25.70;99.90;;;;;;5045971;28;20148;-78
2023/08/14 12:34:45;;;;;;;6.20;1.77;;;25.70;99.90;;;;;;5068805;28;20274;-78
2023/08/14 12:37:13;;;;;;;6.63;1.95;;;25.90;99.90;;;;;;5059609;28;20025;-78
2023/08/14 12:39:40;;;;;;;6.65;1.88;;;25.90;99.90;;;;;;5064374;28;20059;-78
2023/08/14 12:42:06;;;;;;;6.68;1.90;;;25.90;99.90;;;;;;5058985;28;20104;-78
2023/08/14 12:44:32;;;;;;;6.35;1.80;;;25.90;99.90;;;;;;5055513;28;20040;-78